sensor_id;sensor_type;location;lat;lon;timestamp;pressure;altitude;pressure_sealevel;temperature;humidity
65553;BME280;52465;51.560;14.368;2023-04-27T00:00:24;100521.91;;;13.08;58.59
65553;BME280;52465;51.560;14.368;2023-04-27T00:02:49;100497.13;;;12.86;58.75
65553;BME280;52465;51.560;14.368;2023-04-27T00:05:15;100518.78;;;13.05;58.68
65553;BME280;52465;51.560;14.368;2023-04-27T00:07:41;100515.16;;;13.06;58.47
65553;BME280;52465;51.560;14.368;2023-04-27T00:10:07;100506.31;;;12.98;58.91
65553;BME280;52465;51.560;14.368;2023-04-27T00:12:33;100506.63;;;13.04;58.72
65553;BME280;52465;51.560;14.368;2023-04-27T00:14:58;100490.72;;;12.89;58.91
65553;BME280;52465;51.560;14.368;2023-04-27T00:17:24;100480.88;;;12.83;58.94
65553;BME280;52465;51.560;14.368;2023-04-27T00:19:49;100506.94;;;13.01;58.67
65553;BME280;52465;51.560;14.368;2023-04-27T00:22:15;100484.81;;;12.87;58.76
65553;BME280;52465;51.560;14.368;2023-04-27T00:24:40;100503.31;;;13.02;58.80
65553;BME280;52465;51.560;14.368;2023-04-27T00:27:06;100492.66;;;12.95;58.70
65553;BME280;52465;51.560;14.368;2023-04-27T00:35:35;100463.47;;;12.65;59.51
65553;BME280;52465;51.560;14.368;2023-04-27T00:38:00;100490.38;;;12.84;59.41
65553;BME280;52465;51.560;14.368;2023-04-27T00:40:26;100469.38;;;12.67;59.46
65553;BME280;52465;51.560;14.368;2023-04-27T00:42:52;100491.88;;;12.86;58.83
65553;BME280;52465;51.560;14.368;2023-04-27T00:45:20;100507.31;;;12.97;59.18
65553;BME280;52465;51.560;14.368;2023-04-27T00:47:46;100493.50;;;12.87;58.53
65553;BME280;52465;51.560;14.368;2023-04-27T00:50:11;100510.75;;;12.98;59.01
65553;BME280;52465;51.560;14.368;2023-04-27T00:57:30;100486.78;;;12.68;59.88
65553;BME280;52465;51.560;14.368;2023-04-27T01:00:01;100516.81;;;12.90;59.54
65553;BME280;52465;51.560;14.368;2023-04-27T01:02:33;100515.50;;;12.94;59.29
65553;BME280;52465;51.560;14.368;2023-04-27T01:04:59;100516.19;;;12.96;59.41
65553;BME280;52465;51.560;14.368;2023-04-27T01:07:25;100512.69;;;12.96;59.36
65553;BME280;52465;51.560;14.368;2023-04-27T01:09:51;100507.78;;;12.93;58.95
65553;BME280;52465;51.560;14.368;2023-04-27T01:12:16;100497.13;;;12.86;59.01
65553;BME280;52465;51.560;14.368;2023-04-27T01:15:04;100519.13;;;12.93;59.10
65553;BME280;52465;51.560;14.368;2023-04-27T01:17:30;100515.53;;;12.86;59.25
65553;BME280;52465;51.560;14.368;2023-04-27T01:19:55;100511.25;;;12.85;58.72
65553;BME280;52465;51.560;14.368;2023-04-27T01:29:19;100529.63;;;12.77;59.38
65553;BME280;52465;51.560;14.368;2023-04-27T01:31:45;100534.22;;;12.83;59.37
65553;BME280;52465;51.560;14.368;2023-04-27T01:34:14;100530.59;;;12.84;59.27
65553;BME280;52465;51.560;14.368;2023-04-27T01:36:40;100497.63;;;12.65;59.35
65553;BME280;52465;51.560;14.368;2023-04-27T01:41:32;100507.63;;;12.70;59.17
65553;BME280;52465;51.560;14.368;2023-04-27T01:43:58;100519.59;;;12.73;58.78
65553;BME280;52465;51.560;14.368;2023-04-27T01:46:24;100525.53;;;12.75;58.85
65553;BME280;52465;51.560;14.368;2023-04-27T01:48:49;100536.03;;;12.83;58.84
65553;BME280;52465;51.560;14.368;2023-04-27T01:51:15;100548.34;;;12.82;58.75
65553;BME280;52465;51.560;14.368;2023-04-27T01:53:40;100550.97;;;12.82;59.12
65553;BME280;52465;51.560;14.368;2023-04-27T02:02:41;100524.50;;;12.51;59.57
65553;BME280;52465;51.560;14.368;2023-04-27T02:05:06;100551.00;;;12.74;59.44
65553;BME280;52465;51.560;14.368;2023-04-27T02:07:32;100546.06;;;12.71;59.45
65553;BME280;52465;51.560;14.368;2023-04-27T02:09:57;100544.88;;;12.74;59.24
65553;BME280;52465;51.560;14.368;2023-04-27T02:12:22;100514.19;;;12.50;58.90
65553;BME280;52465;51.560;14.368;2023-04-27T02:14:48;100562.78;;;12.78;59.00
65553;BME280;52465;51.560;14.368;2023-04-27T02:17:13;100528.16;;;12.58;58.81
65553;BME280;52465;51.560;14.368;2023-04-27T02:19:39;100556.91;;;12.76;59.18
65553;BME280;52465;51.560;14.368;2023-04-27T02:22:04;100525.19;;;12.53;59.17
65553;BME280;52465;51.560;14.368;2023-04-27T02:24:31;100511.91;;;12.47;59.05
65553;BME280;52465;51.560;14.368;2023-04-27T02:26:57;100528.63;;;12.54;58.61
65553;BME280;52465;51.560;14.368;2023-04-27T02:29:22;100552.47;;;12.68;58.95
65553;BME280;52465;51.560;14.368;2023-04-27T02:31:47;100556.56;;;12.71;58.69
65553;BME280;52465;51.560;14.368;2023-04-27T02:34:18;100556.72;;;12.69;59.01
65553;BME280;52465;51.560;14.368;2023-04-27T02:36:46;100559.34;;;12.69;58.94
65553;BME280;52465;51.560;14.368;2023-04-27T02:39:11;100552.28;;;12.62;59.26
65553;BME280;52465;51.560;14.368;2023-04-27T02:41:37;100560.47;;;12.67;59.19
65553;BME280;52465;51.560;14.368;2023-04-27T02:44:02;100551.13;;;12.64;59.22
65553;BME280;52465;51.560;14.368;2023-04-27T02:46:28;100545.88;;;12.64;58.91
65553;BME280;52465;51.560;14.368;2023-04-27T02:48:54;100550.31;;;12.64;59.05
65553;BME280;52465;51.560;14.368;2023-04-27T02:51:21;100517.94;;;12.39;58.83
65553;BME280;52465;51.560;14.368;2023-04-27T02:53:47;100553.44;;;12.59;58.94
65553;BME280;52465;51.560;14.368;2023-04-27T02:56:12;100550.63;;;12.61;58.91
65553;BME280;52465;51.560;14.368;2023-04-27T02:58:38;100542.06;;;12.51;59.15
65553;BME280;52465;51.560;14.368;2023-04-27T03:01:04;100522.38;;;12.38;59.15
65553;BME280;52465;51.560;14.368;2023-04-27T03:03:32;100548.31;;;12.50;59.13
65553;BME280;52465;51.560;14.368;2023-04-27T03:05:58;100557.84;;;12.51;59.02
65553;BME280;52465;51.560;14.368;2023-04-27T03:08:23;100556.88;;;12.52;59.36
65553;BME280;52465;51.560;14.368;2023-04-27T03:10:49;100457.28;;;11.83;59.34
65553;BME280;52465;51.560;14.368;2023-04-27T03:13:15;100563.75;;;12.53;59.08
65553;BME280;52465;51.560;14.368;2023-04-27T03:15:40;100528.28;;;12.32;59.08
65553;BME280;52465;51.560;14.368;2023-04-27T03:18:06;100551.28;;;12.47;59.29
65553;BME280;52465;51.560;14.368;2023-04-27T03:20:31;100576.06;;;12.52;59.19
65553;BME280;52465;51.560;14.368;2023-04-27T03:22:56;100524.28;;;12.12;59.10
65553;BME280;52465;51.560;14.368;2023-04-27T03:25:24;100573.44;;;12.52;59.43
65553;BME280;52465;51.560;14.368;2023-04-27T03:27:50;100582.16;;;12.53;59.20
65553;BME280;52465;51.560;14.368;2023-04-27T03:30:15;100567.69;;;12.40;59.05
65553;BME280;52465;51.560;14.368;2023-04-27T03:32:41;100582.63;;;12.48;59.06
65553;BME280;52465;51.560;14.368;2023-04-27T03:35:08;100573.13;;;12.47;59.55
65553;BME280;52465;51.560;14.368;2023-04-27T03:37:34;100577.84;;;12.35;59.05
65553;BME280;52465;51.560;14.368;2023-04-27T03:39:59;100573.06;;;12.31;59.23
65553;BME280;52465;51.560;14.368;2023-04-27T03:42:49;100602.63;;;12.41;59.35
65553;BME280;52465;51.560;14.368;2023-04-27T03:45:15;100535.69;;;11.95;59.28
65553;BME280;52465;51.560;14.368;2023-04-27T03:47:42;100603.94;;;12.37;59.10
65553;BME280;52465;51.560;14.368;2023-04-27T03:50:08;100601.25;;;12.29;59.21
65553;BME280;52465;51.560;14.368;2023-04-27T03:52:36;100599.97;;;12.33;59.35
65553;BME280;52465;51.560;14.368;2023-04-27T04:01:51;100607.13;;;12.14;59.72
65553;BME280;52465;51.560;14.368;2023-04-27T04:04:17;100618.00;;;12.28;59.40
65553;BME280;52465;51.560;14.368;2023-04-27T04:06:42;100592.84;;;12.17;59.20
65553;BME280;52465;51.560;14.368;2023-04-27T04:09:08;100559.13;;;11.88;59.45
65553;BME280;52465;51.560;14.368;2023-04-27T04:11:33;100624.59;;;12.32;58.95
65553;BME280;52465;51.560;14.368;2023-04-27T04:13:58;100593.66;;;12.09;59.11
65553;BME280;52465;51.560;14.368;2023-04-27T04:16:49;100625.41;;;12.32;58.89
65553;BME280;52465;51.560;14.368;2023-04-27T04:19:15;100618.63;;;12.22;58.93
65553;BME280;52465;51.560;14.368;2023-04-27T04:28:39;100620.88;;;12.08;59.76
65553;BME280;52465;51.560;14.368;2023-04-27T04:31:07;100596.72;;;11.97;59.39
65553;BME280;52465;51.560;14.368;2023-04-27T04:33:33;100616.13;;;12.12;59.38
65553;BME280;52465;51.560;14.368;2023-04-27T04:36:02;100631.59;;;12.23;59.44
65553;BME280;52465;51.560;14.368;2023-04-27T04:45:08;100645.88;;;12.21;60.02
65553;BME280;52465;51.560;14.368;2023-04-27T04:47:37;100648.50;;;12.21;59.49
65553;BME280;52465;51.560;14.368;2023-04-27T04:50:06;100656.38;;;12.29;59.41
65553;BME280;52465;51.560;14.368;2023-04-27T04:52:34;100659.69;;;12.31;59.22
65553;BME280;52465;51.560;14.368;2023-04-27T05:01:51;100629.53;;;12.01;59.78
65553;BME280;52465;51.560;14.368;2023-04-27T05:04:20;100666.41;;;12.25;59.54
65553;BME280;52465;51.560;14.368;2023-04-27T05:06:45;100623.63;;;11.99;59.75
65553;BME280;52465;51.560;14.368;2023-04-27T05:09:12;100663.09;;;12.23;59.57
65553;BME280;52465;51.560;14.368;2023-04-27T05:11:37;100643.22;;;12.12;59.16
65553;BME280;52465;51.560;14.368;2023-04-27T05:21:14;100671.75;;;12.15;59.84
65553;BME280;52465;51.560;14.368;2023-04-27T05:23:40;100672.78;;;12.23;59.73
65553;BME280;52465;51.560;14.368;2023-04-27T05:26:15;100670.84;;;12.25;59.43
65553;BME280;52465;51.560;14.368;2023-04-27T05:28:40;100672.31;;;12.27;59.42
65553;BME280;52465;51.560;14.368;2023-04-27T05:31:06;100681.00;;;12.28;59.12
65553;BME280;52465;51.560;14.368;2023-04-27T05:33:31;100675.09;;;12.26;59.06
65553;BME280;52465;51.560;14.368;2023-04-27T05:35:59;100662.59;;;12.20;59.48
65553;BME280;52465;51.560;14.368;2023-04-27T05:38:25;100680.81;;;12.21;58.86
65553;BME280;52465;51.560;14.368;2023-04-27T05:40:55;100683.44;;;12.21;59.01
65553;BME280;52465;51.560;14.368;2023-04-27T05:43:30;100678.19;;;12.21;58.89
65553;BME280;52465;51.560;14.368;2023-04-27T05:45:56;100687.06;;;12.20;59.08
65553;BME280;52465;51.560;14.368;2023-04-27T05:48:22;100677.47;;;12.11;58.86
65553;BME280;52465;51.560;14.368;2023-04-27T05:50:58;100683.78;;;12.18;58.78
65553;BME280;52465;51.560;14.368;2023-04-27T05:53:24;100644.06;;;11.87;58.87
65553;BME280;52465;51.560;14.368;2023-04-27T06:03:13;100677.25;;;11.96;59.97
65553;BME280;52465;51.560;14.368;2023-04-27T06:05:39;100684.53;;;12.10;59.64
65553;BME280;52465;51.560;14.368;2023-04-27T06:08:25;100683.41;;;12.13;59.81
65553;BME280;52465;51.560;14.368;2023-04-27T06:10:52;100681.75;;;12.12;59.60
65553;BME280;52465;51.560;14.368;2023-04-27T06:15:45;100687.69;;;12.14;59.07
65553;BME280;52465;51.560;14.368;2023-04-27T06:18:14;100690.31;;;12.14;59.07
65553;BME280;52465;51.560;14.368;2023-04-27T06:20:41;100684.22;;;12.13;59.12
65553;BME280;52465;51.560;14.368;2023-04-27T06:23:07;100668.59;;;12.04;59.24
65553;BME280;52465;51.560;14.368;2023-04-27T06:25:32;100684.53;;;12.10;59.26
65553;BME280;52465;51.560;14.368;2023-04-27T06:27:58;100680.72;;;12.05;59.01
65553;BME280;52465;51.560;14.368;2023-04-27T06:40:25;100692.88;;;12.06;59.90
65553;BME280;52465;51.560;14.368;2023-04-27T06:42:51;100669.22;;;11.98;59.61
65553;BME280;52465;51.560;14.368;2023-04-27T06:45:16;100688.78;;;12.11;59.62
65553;BME280;52465;51.560;14.368;2023-04-27T06:47:42;100683.06;;;12.08;59.55
65553;BME280;52465;51.560;14.368;2023-04-27T06:50:07;100646.31;;;11.82;59.21
65553;BME280;52465;51.560;14.368;2023-04-27T06:52:58;100698.47;;;12.11;59.10
65553;BME280;52465;51.560;14.368;2023-04-27T06:55:23;100702.75;;;12.12;59.07
65553;BME280;52465;51.560;14.368;2023-04-27T06:57:48;100708.97;;;12.11;59.25
65553;BME280;52465;51.560;14.368;2023-04-27T07:06:29;100690.81;;;11.91;60.35
65553;BME280;52465;51.560;14.368;2023-04-27T07:08:56;100703.22;;;12.07;59.59
65553;BME280;52465;51.560;14.368;2023-04-27T07:11:21;100699.47;;;12.10;59.83
65553;BME280;52465;51.560;14.368;2023-04-27T07:20:31;100705.31;;;12.04;60.48
65553;BME280;52465;51.560;14.368;2023-04-27T07:22:56;100662.44;;;11.87;59.81
65553;BME280;52465;51.560;14.368;2023-04-27T07:25:22;100700.28;;;12.10;59.34
65553;BME280;52465;51.560;14.368;2023-04-27T07:27:48;100681.06;;;12.02;59.44
65553;BME280;52465;51.560;14.368;2023-04-27T07:30:16;100708.50;;;12.15;59.60
65553;BME280;52465;51.560;14.368;2023-04-27T07:32:42;100710.31;;;12.15;59.25
65553;BME280;52465;51.560;14.368;2023-04-27T07:35:08;100694.53;;;12.07;59.29
65553;BME280;52465;51.560;14.368;2023-04-27T07:37:36;100713.75;;;12.15;59.15
65553;BME280;52465;51.560;14.368;2023-04-27T07:40:06;100703.38;;;12.06;59.23
65553;BME280;52465;51.560;14.368;2023-04-27T07:42:40;100699.91;;;12.05;59.38
65553;BME280;52465;51.560;14.368;2023-04-27T07:45:08;100632.72;;;11.60;59.23
65553;BME280;52465;51.560;14.368;2023-04-27T07:54:24;100698.25;;;11.96;60.34
65553;BME280;52465;51.560;14.368;2023-04-27T07:56:50;100709.13;;;12.09;59.69
65553;BME280;52465;51.560;14.368;2023-04-27T07:59:18;100714.91;;;12.13;59.38
65553;BME280;52465;51.560;14.368;2023-04-27T08:01:44;100708.31;;;12.09;59.38
65553;BME280;52465;51.560;14.368;2023-04-27T08:04:09;100681.78;;;11.86;59.55
65553;BME280;52465;51.560;14.368;2023-04-27T08:06:37;100723.44;;;12.15;59.30
65553;BME280;52465;51.560;14.368;2023-04-27T08:09:27;100726.06;;;12.15;59.38
65553;BME280;52465;51.560;14.368;2023-04-27T08:11:53;100624.22;;;11.41;58.92
65553;BME280;52465;51.560;14.368;2023-04-27T08:21:18;100709.34;;;11.90;60.26
65553;BME280;52465;51.560;14.368;2023-04-27T08:24:03;100721.78;;;12.14;59.80
65553;BME280;52465;51.560;14.368;2023-04-27T08:26:29;100724.41;;;12.14;59.55
65553;BME280;52465;51.560;14.368;2023-04-27T08:28:54;100710.41;;;12.05;59.46
65553;BME280;52465;51.560;14.368;2023-04-27T08:31:23;100736.91;;;12.20;59.51
65553;BME280;52465;51.560;14.368;2023-04-27T08:33:49;100710.75;;;12.02;59.18
65553;BME280;52465;51.560;14.368;2023-04-27T08:36:14;100726.22;;;12.13;59.37
65553;BME280;52465;51.560;14.368;2023-04-27T08:38:39;100737.91;;;12.19;59.11
65553;BME280;52465;51.560;14.368;2023-04-27T08:41:07;100722.91;;;12.11;59.30
65553;BME280;52465;51.560;14.368;2023-04-27T08:43:33;100685.50;;;11.83;59.10
65553;BME280;52465;51.560;14.368;2023-04-27T08:56:05;100710.66;;;12.20;59.45
65553;BME280;52465;51.560;14.368;2023-04-27T08:58:37;100696.53;;;12.13;59.18
65553;BME280;52465;51.560;14.368;2023-04-27T09:01:06;100710.03;;;12.26;59.24
65553;BME280;52465;51.560;14.368;2023-04-27T09:03:35;100696.91;;;12.18;58.77
65553;BME280;52465;51.560;14.368;2023-04-27T09:06:07;100705.09;;;12.23;58.83
65553;BME280;52465;51.560;14.368;2023-04-27T09:08:48;100701.47;;;12.16;58.87
65553;BME280;52465;51.560;14.368;2023-04-27T09:11:15;100698.53;;;12.19;58.91
65553;BME280;52465;51.560;14.368;2023-04-27T09:13:42;100721.19;;;12.28;58.98
65553;BME280;52465;51.560;14.368;2023-04-27T09:16:12;100721.19;;;12.28;58.98
65553;BME280;52465;51.560;14.368;2023-04-27T09:25:31;100723.59;;;12.13;59.73
65553;BME280;52465;51.560;14.368;2023-04-27T09:27:57;100721.16;;;12.20;59.78
65553;BME280;52465;51.560;14.368;2023-04-27T09:30:27;100714.56;;;12.16;59.52
65553;BME280;52465;51.560;14.368;2023-04-27T09:32:58;100717.25;;;12.24;59.16
65553;BME280;52465;51.560;14.368;2023-04-27T09:35:24;100730.38;;;12.24;59.32
65553;BME280;52465;51.560;14.368;2023-04-27T09:44:36;100727.34;;;12.11;60.03
65553;BME280;52465;51.560;14.368;2023-04-27T09:47:01;100715.19;;;12.10;59.61
65553;BME280;52465;51.560;14.368;2023-04-27T09:49:33;100721.47;;;12.17;59.63
65553;BME280;52465;51.560;14.368;2023-04-27T09:51:58;100735.66;;;12.24;59.45
65553;BME280;52465;51.560;14.368;2023-04-27T09:54:26;100731.22;;;12.25;59.18
65553;BME280;52465;51.560;14.368;2023-04-27T09:57:19;100731.34;;;12.23;59.47
65553;BME280;52465;51.560;14.368;2023-04-27T09:59:56;100685.94;;;11.97;59.12
65553;BME280;52465;51.560;14.368;2023-04-27T10:02:26;100713.94;;;12.22;59.16
65553;BME280;52465;51.560;14.368;2023-04-27T10:14:30;100611.63;;;11.44;59.99
65553;BME280;52465;51.560;14.368;2023-04-27T10:16:57;100664.50;;;12.01;59.76
65553;BME280;52465;51.560;14.368;2023-04-27T10:19:24;100712.50;;;12.28;59.44
65553;BME280;52465;51.560;14.368;2023-04-27T10:21:57;100705.16;;;12.31;59.22
65553;BME280;52465;51.560;14.368;2023-04-27T10:24:38;100686.13;;;12.29;59.23
65553;BME280;52465;51.560;14.368;2023-04-27T10:29:44;100713.28;;;12.46;59.00
65553;BME280;52465;51.560;14.368;2023-04-27T10:32:24;100709.16;;;12.43;59.00
65553;BME280;52465;51.560;14.368;2023-04-27T10:35:08;100711.66;;;12.53;58.68
65553;BME280;52465;51.560;14.368;2023-04-27T10:37:39;100715.63;;;12.57;58.70
65553;BME280;52465;51.560;14.368;2023-04-27T10:40:09;100689.13;;;12.42;58.70
65553;BME280;52465;51.560;14.368;2023-04-27T10:42:39;100716.78;;;12.63;58.60
65553;BME280;52465;51.560;14.368;2023-04-27T10:45:05;100714.81;;;12.65;58.42
65553;BME280;52465;51.560;14.368;2023-04-27T10:47:41;100715.00;;;12.71;58.69
65553;BME280;52465;51.560;14.368;2023-04-27T10:50:11;100713.88;;;12.74;58.67
65553;BME280;52465;51.560;14.368;2023-04-27T10:52:43;100685.09;;;12.64;58.56
65553;BME280;52465;51.560;14.368;2023-04-27T10:55:18;100707.97;;;12.80;58.31
65553;BME280;52465;51.560;14.368;2023-04-27T10:57:52;100713.88;;;12.82;58.11
65553;BME280;52465;51.560;14.368;2023-04-27T11:00:26;100705.69;;;12.85;58.35
65553;BME280;52465;51.560;14.368;2023-04-27T11:02:54;100701.09;;;12.87;58.43
65553;BME280;52465;51.560;14.368;2023-04-27T11:05:23;100692.22;;;12.80;58.62
65553;BME280;52465;51.560;14.368;2023-04-27T11:07:52;100686.31;;;12.86;57.90
65553;BME280;52465;51.560;14.368;2023-04-27T11:10:28;100670.69;;;12.77;58.49
65553;BME280;52465;51.560;14.368;2023-04-27T11:12:56;100695.84;;;12.95;58.43
65553;BME280;52465;51.560;14.368;2023-04-27T11:15:21;100685.00;;;12.90;58.28
65553;BME280;52465;51.560;14.368;2023-04-27T11:17:46;100697.00;;;13.01;58.67
65553;BME280;52465;51.560;14.368;2023-04-27T11:20:12;100687.94;;;12.95;58.47
65553;BME280;52465;51.560;14.368;2023-04-27T11:22:44;100696.34;;;13.07;58.30
65553;BME280;52465;51.560;14.368;2023-04-27T11:25:10;100697.84;;;13.10;58.35
65553;BME280;52465;51.560;14.368;2023-04-27T11:27:38;100685.53;;;13.02;58.24
65553;BME280;52465;51.560;14.368;2023-04-27T11:30:04;100688.28;;;13.01;58.55
65553;BME280;52465;51.560;14.368;2023-04-27T11:32:31;100697.84;;;13.10;58.15
65553;BME280;52465;51.560;14.368;2023-04-27T11:34:57;100701.13;;;13.04;58.20
65553;BME280;52465;51.560;14.368;2023-04-27T11:37:25;100713.97;;;13.15;58.46
65553;BME280;52465;51.560;14.368;2023-04-27T11:39:51;100676.47;;;12.96;58.45
65553;BME280;52465;51.560;14.368;2023-04-27T11:42:20;100697.03;;;13.09;58.60
65553;BME280;52465;51.560;14.368;2023-04-27T11:47:26;100719.06;;;13.16;58.19
65553;BME280;52465;51.560;14.368;2023-04-27T11:49:56;100714.59;;;13.17;58.53
65553;BME280;52465;51.560;14.368;2023-04-27T11:52:27;100692.91;;;13.07;58.09
65553;BME280;52465;51.560;14.368;2023-04-27T11:54:54;100618.09;;;12.52;58.45
65553;BME280;52465;51.560;14.368;2023-04-27T11:59:54;100718.75;;;13.19;58.15
65553;BME280;52465;51.560;14.368;2023-04-27T12:02:20;100719.56;;;13.20;58.60
65553;BME280;52465;51.560;14.368;2023-04-27T12:04:49;100722.19;;;13.20;58.15
65553;BME280;52465;51.560;14.368;2023-04-27T12:07:18;100717.75;;;13.20;58.24
65553;BME280;52465;51.560;14.368;2023-04-27T12:09:44;100715.09;;;13.12;58.06
65553;BME280;52465;51.560;14.368;2023-04-27T12:12:11;100725.81;;;13.19;58.62
65553;BME280;52465;51.560;14.368;2023-04-27T12:14:43;100718.53;;;13.13;58.35
65553;BME280;52465;51.560;14.368;2023-04-27T12:17:09;100721.38;;;13.19;58.62
65553;BME280;52465;51.560;14.368;2023-04-27T12:19:37;100724.00;;;13.19;58.52
65553;BME280;52465;51.560;14.368;2023-04-27T12:22:03;100715.59;;;13.16;58.32
65553;BME280;52465;51.560;14.368;2023-04-27T12:24:28;100736.66;;;13.24;58.22
65553;BME280;52465;51.560;14.368;2023-04-27T12:26:54;100731.56;;;13.22;58.36
65553;BME280;52465;51.560;14.368;2023-04-27T12:29:20;100723.50;;;13.24;58.83
65553;BME280;52465;51.560;14.368;2023-04-27T12:31:47;100737.34;;;13.26;58.23
65553;BME280;52465;51.560;14.368;2023-04-27T12:34:12;100708.38;;;13.18;58.72
65553;BME280;52465;51.560;14.368;2023-04-27T12:36:38;100730.78;;;13.30;58.12
65553;BME280;52465;51.560;14.368;2023-04-27T12:39:16;100714.66;;;13.25;58.66
65553;BME280;52465;51.560;14.368;2023-04-27T12:41:43;100708.59;;;13.25;58.65
65553;BME280;52465;51.560;14.368;2023-04-27T12:44:13;100729.13;;;13.29;58.65
65553;BME280;52465;51.560;14.368;2023-04-27T12:46:39;100734.38;;;13.29;58.21
65553;BME280;52465;51.560;14.368;2023-04-27T12:49:05;100725.34;;;13.32;58.30
65553;BME280;52465;51.560;14.368;2023-04-27T12:51:35;100735.19;;;13.30;58.71
65553;BME280;52465;51.560;14.368;2023-04-27T12:54:04;100736.03;;;13.30;58.70
65553;BME280;52465;51.560;14.368;2023-04-27T12:56:31;100723.69;;;13.22;58.66
65553;BME280;52465;51.560;14.368;2023-04-27T12:58:56;100738.69;;;13.30;58.61
65553;BME280;52465;51.560;14.368;2023-04-27T13:01:22;100733.41;;;13.30;58.79
65553;BME280;52465;51.560;14.368;2023-04-27T13:04:02;100741.44;;;13.29;58.65
65553;BME280;52465;51.560;14.368;2023-04-27T13:06:29;100742.25;;;13.29;58.44
65553;BME280;52465;51.560;14.368;2023-04-27T13:08:58;100713.28;;;13.13;58.44
65553;BME280;52465;51.560;14.368;2023-04-27T13:11:27;100728.28;;;13.29;58.32
65553;BME280;52465;51.560;14.368;2023-04-27T13:13:52;100735.19;;;13.30;58.35
65553;BME280;52465;51.560;14.368;2023-04-27T13:16:19;100722.88;;;13.22;58.70
65553;BME280;52465;51.560;14.368;2023-04-27T13:18:46;100706.72;;;13.17;58.33
65553;BME280;52465;51.560;14.368;2023-04-27T13:23:35;100705.63;;;13.28;58.57
65553;BME280;52465;51.560;14.368;2023-04-27T13:26:00;100710.88;;;13.28;58.67
65553;BME280;52465;51.560;14.368;2023-04-27T13:28:29;100671.06;;;12.98;58.72
65553;BME280;52465;51.560;14.368;2023-04-27T13:33:16;100695.22;;;13.18;58.11
65553;BME280;52465;51.560;14.368;2023-04-27T13:38:06;100714.31;;;13.28;58.26
65553;BME280;52465;51.560;14.368;2023-04-27T13:40:32;100702.50;;;13.32;58.50
65553;BME280;52465;51.560;14.368;2023-04-27T13:42:57;100669.09;;;13.08;58.21
65553;BME280;52465;51.560;14.368;2023-04-27T13:45:23;100695.75;;;13.21;58.02
65553;BME280;52465;51.560;14.368;2023-04-27T13:47:49;100703.16;;;13.34;58.40
65553;BME280;52465;51.560;14.368;2023-04-27T13:50:15;100695.75;;;13.30;58.60
65553;BME280;52465;51.560;14.368;2023-04-27T13:52:41;100700.69;;;13.33;58.01
65553;BME280;52465;51.560;14.368;2023-04-27T13:55:08;100658.25;;;13.11;58.37
65553;BME280;52465;51.560;14.368;2023-04-27T13:57:36;100704.47;;;13.38;58.36
65553;BME280;52465;51.560;14.368;2023-04-27T14:00:03;100707.75;;;13.40;58.06
65553;BME280;52465;51.560;14.368;2023-04-27T14:02:32;100683.44;;;13.30;58.15
65553;BME280;52465;51.560;14.368;2023-04-27T14:05:00;100696.41;;;13.40;57.81
65553;BME280;52465;51.560;14.368;2023-04-27T14:07:25;100703.31;;;13.41;57.98
65553;BME280;52465;51.560;14.368;2023-04-27T14:09:53;100688.53;;;13.40;58.60
65553;BME280;52465;51.560;14.368;2023-04-27T14:12:19;100686.88;;;13.39;58.37
65553;BME280;52465;51.560;14.368;2023-04-27T14:14:45;100691.97;;;13.40;58.42
65553;BME280;52465;51.560;14.368;2023-04-27T14:17:11;100692.66;;;13.42;58.35
65553;BME280;52465;51.560;14.368;2023-04-27T14:19:36;100688.22;;;13.43;58.09
65553;BME280;52465;51.560;14.368;2023-04-27T14:22:02;100689.69;;;13.45;58.26
65553;BME280;52465;51.560;14.368;2023-04-27T14:24:30;100644.63;;;13.24;58.46
65553;BME280;52465;51.560;14.368;2023-04-27T14:26:55;100679.34;;;13.44;58.32
65553;BME280;52465;51.560;14.368;2023-04-27T14:29:22;100690.34;;;13.47;58.29
65553;BME280;52465;51.560;14.368;2023-04-27T14:31:47;100640.53;;;13.13;58.27
65553;BME280;52465;51.560;14.368;2023-04-27T14:34:14;100691.19;;;13.48;58.16
65553;BME280;52465;51.560;14.368;2023-04-27T14:36:40;100665.03;;;13.30;58.25
65553;BME280;52465;51.560;14.368;2023-04-27T14:39:24;100685.09;;;13.47;58.44
65553;BME280;52465;51.560;14.368;2023-04-27T14:41:54;100692.16;;;13.47;58.21
65553;BME280;52465;51.560;14.368;2023-04-27T14:44:20;100694.44;;;13.50;58.37
65553;BME280;52465;51.560;14.368;2023-04-27T14:46:45;100696.44;;;13.48;58.10
65553;BME280;52465;51.560;14.368;2023-04-27T14:49:11;100671.94;;;13.31;58.14
65553;BME280;52465;51.560;14.368;2023-04-27T14:51:37;100684.09;;;13.40;58.53
65553;BME280;52465;51.560;14.368;2023-04-27T14:54:02;100683.13;;;13.41;58.26
65553;BME280;52465;51.560;14.368;2023-04-27T14:56:28;100701.19;;;13.44;58.54
65553;BME280;52465;51.560;14.368;2023-04-27T14:58:54;100696.09;;;13.43;58.59
65553;BME280;52465;51.560;14.368;2023-04-27T15:01:20;100695.94;;;13.44;58.51
65553;BME280;52465;51.560;14.368;2023-04-27T15:03:46;100658.13;;;13.21;58.60
65553;BME280;52465;51.560;14.368;2023-04-27T15:06:11;100682.78;;;13.36;58.31
65553;BME280;52465;51.560;14.368;2023-04-27T15:08:38;100654.19;;;13.25;58.54
65553;BME280;52465;51.560;14.368;2023-04-27T15:11:03;100685.91;;;13.40;58.33
65553;BME280;52465;51.560;14.368;2023-04-27T15:13:29;100685.25;;;13.38;58.30
65553;BME280;52465;51.560;14.368;2023-04-27T15:15:55;100678.50;;;13.43;58.54
65553;BME280;52465;51.560;14.368;2023-04-27T15:18:21;100664.38;;;13.28;58.61